Taft Beach — WBQ9253 — position and weather

sailwx.info

Track history (hours):
 
Tides and Currents Weather Stations Pressure Air Temp Water Temp Dewpoint Dewpoint Depression Visibility Wind Speed Wind Dir Waves Ship Positions

Taft Beach

Owner: DOUGLAS MARINE INC, CHESAPEAKE, VA. More information available from US FCC via Universal Licensing System and Coast Guard Vessel Documentation Center.

Last reported at 2017-Sep-21 23:57 UTC. Time now 2017-Sep-22 19:00 UTC.
Position N 40°40' W 074°08'.

; draft 0.31 m.

Type: Tug. MMSI: 367016410.

Date/timePositionNaut miles runAvg speedWind from/ knotsBaromVisibWave heightAir tempDewpointWater temp
2017-Sep-21 23:57N 40°40' W 074°08'0 0.0
2017-Sep-21 23:22N 40°40' W 074°08'0 0.0
2017-Sep-21 22:55N 40°40' W 074°08'0 0.0
2017-Sep-21 22:29N 40°40' W 074°08'0 0.0
2017-Sep-21 21:38N 40°40' W 074°08'0 0.0
2017-Sep-21 21:29N 40°40' W 074°08'0 0.0
2017-Sep-21 20:46N 40°40' W 074°08'0 0.0
2017-Sep-21 20:30N 40°40' W 074°08'0 0.0
2017-Sep-21 17:31N 40°40' W 074°08'0 0.0
2017-Sep-21 17:09N 40°40' W 074°08'0 3.0
2017-Sep-21 17:01N 40°40' W 074°09'2 1.2
2017-Sep-21 15:30N 40°39' W 074°11'2 3.9
2017-Sep-21 14:56N 40°40' W 074°08'0 0.0
2017-Sep-21 11:47N 40°40' W 074°08'1 3.9
2017-Sep-21 11:30N 40°41' W 074°08'2 4.7
2017-Sep-21 11:00N 40°43' W 074°06'2 4.0
2017-Sep-21 10:30N 40°45' W 074°05'0 0.5
2017-Sep-21 09:55N 40°45' W 074°04'0 0.0
2017-Sep-20 21:17N 40°45' W 074°04'0 0.0
2017-Sep-20 14:00N 40°45' W 074°04'0 0.0
2017-Sep-20 09:15N 40°45' W 074°04'0 0.0
2017-Sep-20 08:59N 40°45' W 074°04'0 0.0
2017-Sep-20 08:26N 40°45' W 074°04'0 0.0
2017-Sep-20 03:50N 40°45' W 074°04'0 0.0
2017-Sep-20 03:29N 40°45' W 074°04'0 0.0
2017-Sep-20 03:01N 40°45' W 074°04'0 0.0
2017-Sep-20 02:29N 40°45' W 074°04'0 0.0
2017-Sep-20 02:00N 40°45' W 074°04'0 0.0
2017-Sep-20 01:29N 40°45' W 074°04'0 0.0
2017-Sep-20 01:00N 40°45' W 074°04'0 0.0
2017-Sep-20 00:30N 40°45' W 074°04'0 0.0
2017-Sep-19 23:58N 40°45' W 074°04'0 0.0
2017-Sep-19 23:25N 40°45' W 074°04'0 0.0
2017-Sep-19 22:54N 40°45' W 074°04'0 0.0
2017-Sep-19 22:22N 40°45' W 074°04'0 0.0
2017-Sep-19 21:34N 40°45' W 074°04'0 0.0
2017-Sep-19 21:27N 40°45' W 074°04'0 0.0
2017-Sep-19 20:53N 40°45' W 074°04'0 0.0
2017-Sep-19 20:30N 40°45' W 074°04'0 0.0
2017-Sep-19 20:00N 40°45' W 074°04'0 0.0
2017-Sep-19 08:37N 40°45' W 074°04'0 0.0
2017-Sep-19 08:26N 40°45' W 074°04'0 0.0
2017-Sep-19 06:22N 40°45' W 074°04'0 0.0
2017-Sep-19 05:56N 40°45' W 074°04'0 0.0
2017-Sep-19 02:01N 40°45' W 074°04'0 0.0
2017-Sep-19 01:58N 40°45' W 074°04'0 0.0
2017-Sep-18 16:53N 40°45' W 074°04'0 0.0
2017-Sep-18 13:29N 40°45' W 074°04'0 0.0
2017-Sep-18 04:54N 40°45' W 074°04'0 0.0
2017-Sep-18 04:30N 40°45' W 074°04'0 0.0
2017-Sep-18 00:47N 40°45' W 074°04'0 0.0
2017-Sep-17 19:40N 40°45' W 074°04'0 0.0
2017-Sep-17 19:27N 40°45' W 074°04'0 0.0
2017-Sep-17 18:56N 40°45' W 074°04'0 0.0
2017-Sep-17 18:27N 40°45' W 074°04'1 1.3
2017-Sep-17 18:00N 40°44' W 074°05'1 1.8
2017-Sep-17 17:30N 40°44' W 074°06'4 7.6
2017-Sep-17 16:57N 40°40' W 074°08'2 4.1
2017-Sep-17 16:30N 40°39' W 074°06'4 8.0
2017-Sep-17 16:00N 40°40' W 074°02'1 1.5
2017-Sep-17 15:30N 40°40' W 074°01'0 0.0
2017-Sep-17 15:00N 40°40' W 074°01'0 0.0
2017-Sep-17 14:30N 40°40' W 074°01'0 0.1
2017-Sep-17 14:00N 40°40' W 074°01'3 5.0
2017-Sep-17 13:30N 40°39' W 074°04'6 2.0
2017-Sep-17 10:37N 40°38' W 074°12'1 4.7
2017-Sep-17 10:19N 40°39' W 074°10'2 7.5
2017-Sep-17 10:00N 40°41' W 074°08'3 6.8
2017-Sep-17 09:30N 40°44' W 074°06'1 2.4
2017-Sep-17 08:59N 40°44' W 074°05'0 0.1
2017-Sep-17 04:23N 40°45' W 074°04'0 0.0
2017-Sep-17 03:57N 40°45' W 074°04'0 0.0
2017-Sep-17 03:27N 40°45' W 074°04'0 0.0
2017-Sep-17 03:00N 40°45' W 074°04'0 0.0
2017-Sep-17 02:25N 40°45' W 074°04'0 0.0
2017-Sep-16 22:30N 40°45' W 074°04'0 0.1
2017-Sep-16 21:55N 40°45' W 074°04'0 0.1
2017-Sep-16 21:19N 40°45' W 074°04'0 0.0
2017-Sep-16 20:54N 40°45' W 074°04'0 0.0
2017-Sep-16 20:26N 40°45' W 074°04'0 0.0
2017-Sep-16 19:58N 40°45' W 074°04'0 0.0
2017-Sep-16 19:13N 40°45' W 074°04'0 0.1
2017-Sep-16 18:57N 40°45' W 074°04'0 0.0
2017-Sep-16 18:30N 40°45' W 074°04'0 0.0
2017-Sep-16 17:36N 40°45' W 074°04'0 0.0
2017-Sep-16 17:09N 40°45' W 074°04'0 0.0
2017-Sep-16 17:00N 40°45' W 074°04'0 0.0
2017-Sep-16 16:23N 40°45' W 074°04'0 0.0
2017-Sep-16 15:58N 40°45' W 074°04'0 0.0
2017-Sep-16 15:30N 40°45' W 074°04'0 0.0
2017-Sep-16 15:00N 40°45' W 074°04'0 0.0
2017-Sep-16 14:30N 40°45' W 074°04'0 0.0
2017-Sep-16 05:23N 40°45' W 074°04'0 0.0
2017-Sep-16 00:31N 40°45' W 074°04'0 0.0
2017-Sep-16 00:19N 40°45' W 074°04'0 0.0
2017-Sep-15 23:59N 40°45' W 074°04'0 0.0
2017-Sep-15 23:05N 40°45' W 074°04'0 0.0
2017-Sep-15 20:45N 40°45' W 074°04'0 0.0
2017-Sep-15 20:26N 40°45' W 074°04'0 0.0
2017-Sep-15 20:00N 40°45' W 074°04'0 0.0
2017-Sep-15 18:31N 40°45' W 074°04'0 0.0
2017-Sep-15 18:29N 40°45' W 074°04'0 0.1
2017-Sep-15 16:07N 40°45' W 074°05'0 3.1
2017-Sep-15 16:00N 40°44' W 074°05'0 0.0
2017-Sep-14 22:44N 40°45' W 074°05'1 3.4
2017-Sep-14 22:30N 40°44' W 074°06'2 4.3
2017-Sep-14 21:59N 40°42' W 074°07'3 5.1
2017-Sep-14 21:29N 40°40' W 074°08'0 0.0
2017-Sep-14 21:00N 40°40' W 074°08'0 0.0
2017-Sep-14 20:30N 40°40' W 074°08'0 0.0
2017-Sep-14 19:38N 40°40' W 074°08'0 0.0
2017-Sep-14 19:30N 40°40' W 074°08'0 0.0
2017-Sep-14 19:00N 40°40' W 074°08'0 0.0
2017-Sep-14 18:30N 40°40' W 074°08'0 0.0
2017-Sep-14 18:00N 40°40' W 074°08'1 1.3
2017-Sep-14 17:06N 40°41' W 074°08'0 0.0
2017-Sep-14 16:58N 40°41' W 074°08'0 0.0
2017-Sep-14 16:30N 40°41' W 074°08'0 0.0
2017-Sep-14 15:58N 40°41' W 074°08'0 0.0
2017-Sep-14 15:29N 40°41' W 074°08'0 0.0
2017-Sep-14 15:00N 40°41' W 074°08'0 0.0
2017-Sep-14 14:30N 40°41' W 074°08'0 0.0
2017-Sep-14 13:58N 40°41' W 074°08'0 0.0
2017-Sep-14 13:28N 40°41' W 074°08'0 0.0
2017-Sep-14 13:00N 40°41' W 074°08'0 0.0
2017-Sep-14 12:26N 40°41' W 074°08'0 0.0
2017-Sep-14 11:56N 40°41' W 074°08'0 0.0
2017-Sep-14 11:27N 40°41' W 074°08'0 0.0
2017-Sep-14 10:57N 40°41' W 074°08'0 0.0
2017-Sep-14 10:29N 40°41' W 074°08'0 0.0
2017-Sep-14 09:56N 40°41' W 074°08'0 0.0
2017-Sep-14 09:30N 40°41' W 074°08'0 0.0
2017-Sep-14 08:52N 40°41' W 074°08'0 0.0
2017-Sep-14 08:26N 40°41' W 074°08'0 0.0
2017-Sep-14 07:48N 40°41' W 074°08'0 0.0
2017-Sep-14 07:30N 40°41' W 074°08'0 0.0
2017-Sep-14 07:00N 40°41' W 074°08'0 0.0
2017-Sep-14 06:30N 40°41' W 074°08'0 0.0
2017-Sep-14 05:50N 40°41' W 074°08'0 0.0
2017-Sep-14 05:14N 40°41' W 074°08'0 0.0
2017-Sep-14 04:59N 40°41' W 074°08'0 0.0
2017-Sep-14 04:29N 40°41' W 074°08'0 0.0
2017-Sep-14 04:01N 40°41' W 074°08'0 0.0
2017-Sep-14 03:18N 40°41' W 074°08'0 0.0
2017-Sep-14 03:00N 40°41' W 074°08'0 0.0
2017-Sep-14 01:42N 40°41' W 074°08'0 0.0
2017-Sep-14 01:28N 40°41' W 074°08'0 0.0
2017-Sep-14 01:00N 40°41' W 074°08'0 0.0
2017-Sep-14 00:21N 40°41' W 074°08'0 0.0
2017-Sep-14 00:00N 40°41' W 074°08'0 0.0
2017-Sep-13 23:30N 40°41' W 074°08'0 0.0
2017-Sep-13 23:00N 40°41' W 074°08'0 0.0
2017-Sep-13 22:31N 40°41' W 074°08'0 0.0
2017-Sep-13 22:00N 40°41' W 074°08'0 0.1
2017-Sep-13 21:30N 40°41' W 074°08'1 2.1
2017-Sep-13 21:00N 40°40' W 074°08'0 0.2
2017-Sep-13 20:29N 40°40' W 074°08'0 0.0
2017-Sep-13 20:00N 40°40' W 074°08'0 0.0
2017-Sep-13 19:30N 40°40' W 074°08'0 0.0
2017-Sep-13 17:31N 40°40' W 074°08'0 0.0
2017-Sep-13 17:19N 40°40' W 074°08'0 0.0
2017-Sep-13 17:00N 40°40' W 074°08'0 0.0
2017-Sep-13 16:30N 40°40' W 074°08'0 0.0
2017-Sep-13 15:57N 40°40' W 074°08'0 0.0
2017-Sep-13 15:27N 40°40' W 074°08'1 1.9
2017-Sep-13 15:00N 40°41' W 074°08'2 4.2
2017-Sep-13 14:31N 40°43' W 074°07'3 1.2
2017-Sep-13 12:09N 40°45' W 074°05'0 0.0
2017-Sep-13 12:00N 40°45' W 074°05'0 0.0
2017-Sep-13 09:00N 40°45' W 074°05'0 0.0
2017-Sep-13 08:21N 40°45' W 074°05'0 0.0
2017-Sep-13 08:00N 40°45' W 074°05'0 0.0
2017-Sep-13 07:30N 40°45' W 074°05'0 0.0
2017-Sep-13 06:35N 40°45' W 074°05'0 0.0
2017-Sep-13 06:30N 40°45' W 074°05'0 0.0
2017-Sep-13 03:56N 40°45' W 074°05'0 0.0
2017-Sep-13 03:03N 40°45' W 074°05'0 1.7
2017-Sep-13 02:58N 40°45' W 074°05'1 2.0
2017-Sep-13 02:30N 40°44' W 074°06'3 5.7
2017-Sep-13 02:00N 40°42' W 074°07'0 0.7
2017-Sep-13 01:30N 40°41' W 074°08'4 7.2
2017-Sep-13 00:59N 40°44' W 074°05'1 0.4
2017-Sep-12 23:26N 40°45' W 074°04'0 0.0
2017-Sep-12 23:00N 40°45' W 074°04'0 0.0
2017-Sep-12 19:22N 40°45' W 074°04'0 0.0
2017-Sep-12 18:25N 40°45' W 074°04'0 0.0
2017-Sep-12 05:49N 40°45' W 074°04'0 0.0
2017-Sep-12 03:23N 40°45' W 074°04'0 0.0
2017-Sep-12 02:57N 40°45' W 074°04'0 0.0
2017-Sep-12 02:29N 40°45' W 074°04'0 0.0
2017-Sep-12 02:00N 40°45' W 074°04'0 0.0
2017-Sep-12 01:30N 40°45' W 074°04'0 0.0
2017-Sep-12 00:59N 40°45' W 074°04'0 0.0
2017-Sep-12 00:30N 40°45' W 074°04'0 0.0
2017-Sep-12 00:00N 40°45' W 074°04'  
Track history (hours):
 
Tides and Currents Weather Stations Pressure Air Temp Water Temp Dewpoint Dewpoint Depression Visibility Wind Speed Wind Dir Waves Ship Positions

Taft Beach

Owner: DOUGLAS MARINE INC, CHESAPEAKE, VA. More information available from US FCC via Universal Licensing System and Coast Guard Vessel Documentation Center.

Last reported at 2017-Sep-21 23:57 UTC. Time now 2017-Sep-22 19:00 UTC.
Position N 40°40' W 074°08'.

; draft 0.31 m.

Type: Tug. MMSI: 367016410.

Date/timePositionNaut miles runAvg speedWind from/ knotsBaromVisibWave heightAir tempDewpointWater temp
2017-Sep-21 23:57N 40°40' W 074°08'0 0.0
2017-Sep-21 23:22N 40°40' W 074°08'0 0.0
2017-Sep-21 22:55N 40°40' W 074°08'0 0.0
2017-Sep-21 22:29N 40°40' W 074°08'0 0.0
2017-Sep-21 21:38N 40°40' W 074°08'0 0.0
2017-Sep-21 21:29N 40°40' W 074°08'0 0.0
2017-Sep-21 20:46N 40°40' W 074°08'0 0.0
2017-Sep-21 20:30N 40°40' W 074°08'0 0.0
2017-Sep-21 17:31N 40°40' W 074°08'0 0.0
2017-Sep-21 17:09N 40°40' W 074°08'0 3.0
2017-Sep-21 17:01N 40°40' W 074°09'2 1.2
2017-Sep-21 15:30N 40°39' W 074°11'2 3.9
2017-Sep-21 14:56N 40°40' W 074°08'0 0.0
2017-Sep-21 11:47N 40°40' W 074°08'1 3.9
2017-Sep-21 11:30N 40°41' W 074°08'2 4.7
2017-Sep-21 11:00N 40°43' W 074°06'2 4.0
2017-Sep-21 10:30N 40°45' W 074°05'0 0.5
2017-Sep-21 09:55N 40°45' W 074°04'0 0.0
2017-Sep-20 21:17N 40°45' W 074°04'0 0.0
2017-Sep-20 14:00N 40°45' W 074°04'0 0.0
2017-Sep-20 09:15N 40°45' W 074°04'0 0.0
2017-Sep-20 08:59N 40°45' W 074°04'0 0.0
2017-Sep-20 08:26N 40°45' W 074°04'0 0.0
2017-Sep-20 03:50N 40°45' W 074°04'0 0.0
2017-Sep-20 03:29N 40°45' W 074°04'0 0.0
2017-Sep-20 03:01N 40°45' W 074°04'0 0.0
2017-Sep-20 02:29N 40°45' W 074°04'0 0.0
2017-Sep-20 02:00N 40°45' W 074°04'0 0.0
2017-Sep-20 01:29N 40°45' W 074°04'0 0.0
2017-Sep-20 01:00N 40°45' W 074°04'0 0.0
2017-Sep-20 00:30N 40°45' W 074°04'0 0.0
2017-Sep-19 23:58N 40°45' W 074°04'0 0.0
2017-Sep-19 23:25N 40°45' W 074°04'0 0.0
2017-Sep-19 22:54N 40°45' W 074°04'0 0.0
2017-Sep-19 22:22N 40°45' W 074°04'0 0.0
2017-Sep-19 21:34N 40°45' W 074°04'0 0.0
2017-Sep-19 21:27N 40°45' W 074°04'0 0.0
2017-Sep-19 20:53N 40°45' W 074°04'0 0.0
2017-Sep-19 20:30N 40°45' W 074°04'0 0.0
2017-Sep-19 20:00N 40°45' W 074°04'0 0.0
2017-Sep-19 08:37N 40°45' W 074°04'0 0.0
2017-Sep-19 08:26N 40°45' W 074°04'0 0.0
2017-Sep-19 06:22N 40°45' W 074°04'0 0.0
2017-Sep-19 05:56N 40°45' W 074°04'0 0.0
2017-Sep-19 02:01N 40°45' W 074°04'0 0.0
2017-Sep-19 01:58N 40°45' W 074°04'0 0.0
2017-Sep-18 16:53N 40°45' W 074°04'0 0.0
2017-Sep-18 13:29N 40°45' W 074°04'0 0.0
2017-Sep-18 04:54N 40°45' W 074°04'0 0.0
2017-Sep-18 04:30N 40°45' W 074°04'0 0.0
2017-Sep-18 00:47N 40°45' W 074°04'0 0.0
2017-Sep-17 19:40N 40°45' W 074°04'0 0.0
2017-Sep-17 19:27N 40°45' W 074°04'0 0.0
2017-Sep-17 18:56N 40°45' W 074°04'0 0.0
2017-Sep-17 18:27N 40°45' W 074°04'1 1.3
2017-Sep-17 18:00N 40°44' W 074°05'1 1.8
2017-Sep-17 17:30N 40°44' W 074°06'4 7.6
2017-Sep-17 16:57N 40°40' W 074°08'2 4.1
2017-Sep-17 16:30N 40°39' W 074°06'4 8.0
2017-Sep-17 16:00N 40°40' W 074°02'1 1.5
2017-Sep-17 15:30N 40°40' W 074°01'0 0.0
2017-Sep-17 15:00N 40°40' W 074°01'0 0.0
2017-Sep-17 14:30N 40°40' W 074°01'0 0.1
2017-Sep-17 14:00N 40°40' W 074°01'3 5.0
2017-Sep-17 13:30N 40°39' W 074°04'6 2.0
2017-Sep-17 10:37N 40°38' W 074°12'1 4.7
2017-Sep-17 10:19N 40°39' W 074°10'2 7.5
2017-Sep-17 10:00N 40°41' W 074°08'3 6.8
2017-Sep-17 09:30N 40°44' W 074°06'1 2.4
2017-Sep-17 08:59N 40°44' W 074°05'0 0.1
2017-Sep-17 04:23N 40°45' W 074°04'0 0.0
2017-Sep-17 03:57N 40°45' W 074°04'0 0.0
2017-Sep-17 03:27N 40°45' W 074°04'0 0.0
2017-Sep-17 03:00N 40°45' W 074°04'0 0.0
2017-Sep-17 02:25N 40°45' W 074°04'0 0.0
2017-Sep-16 22:30N 40°45' W 074°04'0 0.1
2017-Sep-16 21:55N 40°45' W 074°04'0 0.1
2017-Sep-16 21:19N 40°45' W 074°04'0 0.0
2017-Sep-16 20:54N 40°45' W 074°04'0 0.0
2017-Sep-16 20:26N 40°45' W 074°04'0 0.0
2017-Sep-16 19:58N 40°45' W 074°04'0 0.0
2017-Sep-16 19:13N 40°45' W 074°04'0 0.1
2017-Sep-16 18:57N 40°45' W 074°04'0 0.0
2017-Sep-16 18:30N 40°45' W 074°04'0 0.0
2017-Sep-16 17:36N 40°45' W 074°04'0 0.0
2017-Sep-16 17:09N 40°45' W 074°04'0 0.0
2017-Sep-16 17:00N 40°45' W 074°04'0 0.0
2017-Sep-16 16:23N 40°45' W 074°04'0 0.0
2017-Sep-16 15:58N 40°45' W 074°04'0 0.0
2017-Sep-16 15:30N 40°45' W 074°04'0 0.0
2017-Sep-16 15:00N 40°45' W 074°04'0 0.0
2017-Sep-16 14:30N 40°45' W 074°04'0 0.0
2017-Sep-16 05:23N 40°45' W 074°04'0 0.0
2017-Sep-16 00:31N 40°45' W 074°04'0 0.0
2017-Sep-16 00:19N 40°45' W 074°04'0 0.0
2017-Sep-15 23:59N 40°45' W 074°04'0 0.0
2017-Sep-15 23:05N 40°45' W 074°04'0 0.0
2017-Sep-15 20:45N 40°45' W 074°04'0 0.0
2017-Sep-15 20:26N 40°45' W 074°04'0 0.0
2017-Sep-15 20:00N 40°45' W 074°04'0 0.0
2017-Sep-15 18:31N 40°45' W 074°04'0 0.0
2017-Sep-15 18:29N 40°45' W 074°04'0 0.1
2017-Sep-15 16:07N 40°45' W 074°05'0 3.1
2017-Sep-15 16:00N 40°44' W 074°05'0 0.0
2017-Sep-14 22:44N 40°45' W 074°05'1 3.4
2017-Sep-14 22:30N 40°44' W 074°06'2 4.3
2017-Sep-14 21:59N 40°42' W 074°07'3 5.1
2017-Sep-14 21:29N 40°40' W 074°08'0 0.0
2017-Sep-14 21:00N 40°40' W 074°08'0 0.0
2017-Sep-14 20:30N 40°40' W 074°08'0 0.0
2017-Sep-14 19:38N 40°40' W 074°08'0 0.0
2017-Sep-14 19:30N 40°40' W 074°08'0 0.0
2017-Sep-14 19:00N 40°40' W 074°08'0 0.0
2017-Sep-14 18:30N 40°40' W 074°08'0 0.0
2017-Sep-14 18:00N 40°40' W 074°08'1 1.3
2017-Sep-14 17:06N 40°41' W 074°08'0 0.0
2017-Sep-14 16:58N 40°41' W 074°08'0 0.0
2017-Sep-14 16:30N 40°41' W 074°08'0 0.0
2017-Sep-14 15:58N 40°41' W 074°08'0 0.0
2017-Sep-14 15:29N 40°41' W 074°08'0 0.0
2017-Sep-14 15:00N 40°41' W 074°08'0 0.0
2017-Sep-14 14:30N 40°41' W 074°08'0 0.0
2017-Sep-14 13:58N 40°41' W 074°08'0 0.0
2017-Sep-14 13:28N 40°41' W 074°08'0 0.0
2017-Sep-14 13:00N 40°41' W 074°08'0 0.0
2017-Sep-14 12:26N 40°41' W 074°08'0 0.0
2017-Sep-14 11:56N 40°41' W 074°08'0 0.0
2017-Sep-14 11:27N 40°41' W 074°08'0 0.0
2017-Sep-14 10:57N 40°41' W 074°08'0 0.0
2017-Sep-14 10:29N 40°41' W 074°08'0 0.0
2017-Sep-14 09:56N 40°41' W 074°08'0 0.0
2017-Sep-14 09:30N 40°41' W 074°08'0 0.0
2017-Sep-14 08:52N 40°41' W 074°08'0 0.0
2017-Sep-14 08:26N 40°41' W 074°08'0 0.0
2017-Sep-14 07:48N 40°41' W 074°08'0 0.0
2017-Sep-14 07:30N 40°41' W 074°08'0 0.0
2017-Sep-14 07:00N 40°41' W 074°08'0 0.0
2017-Sep-14 06:30N 40°41' W 074°08'0 0.0
2017-Sep-14 05:50N 40°41' W 074°08'0 0.0
2017-Sep-14 05:14N 40°41' W 074°08'0 0.0
2017-Sep-14 04:59N 40°41' W 074°08'0 0.0
2017-Sep-14 04:29N 40°41' W 074°08'0 0.0
2017-Sep-14 04:01N 40°41' W 074°08'0 0.0
2017-Sep-14 03:18N 40°41' W 074°08'0 0.0
2017-Sep-14 03:00N 40°41' W 074°08'0 0.0
2017-Sep-14 01:42N 40°41' W 074°08'0 0.0
2017-Sep-14 01:28N 40°41' W 074°08'0 0.0
2017-Sep-14 01:00N 40°41' W 074°08'0 0.0
2017-Sep-14 00:21N 40°41' W 074°08'0 0.0
2017-Sep-14 00:00N 40°41' W 074°08'0 0.0
2017-Sep-13 23:30N 40°41' W 074°08'0 0.0
2017-Sep-13 23:00N 40°41' W 074°08'0 0.0
2017-Sep-13 22:31N 40°41' W 074°08'0 0.0
2017-Sep-13 22:00N 40°41' W 074°08'0 0.1
2017-Sep-13 21:30N 40°41' W 074°08'1 2.1
2017-Sep-13 21:00N 40°40' W 074°08'0 0.2
2017-Sep-13 20:29N 40°40' W 074°08'0 0.0
2017-Sep-13 20:00N 40°40' W 074°08'0 0.0
2017-Sep-13 19:30N 40°40' W 074°08'0 0.0
2017-Sep-13 17:31N 40°40' W 074°08'0 0.0
2017-Sep-13 17:19N 40°40' W 074°08'0 0.0
2017-Sep-13 17:00N 40°40' W 074°08'0 0.0
2017-Sep-13 16:30N 40°40' W 074°08'0 0.0
2017-Sep-13 15:57N 40°40' W 074°08'0 0.0
2017-Sep-13 15:27N 40°40' W 074°08'1 1.9
2017-Sep-13 15:00N 40°41' W 074°08'2 4.2
2017-Sep-13 14:31N 40°43' W 074°07'3 1.2
2017-Sep-13 12:09N 40°45' W 074°05'0 0.0
2017-Sep-13 12:00N 40°45' W 074°05'0 0.0
2017-Sep-13 09:00N 40°45' W 074°05'0 0.0
2017-Sep-13 08:21N 40°45' W 074°05'0 0.0
2017-Sep-13 08:00N 40°45' W 074°05'0 0.0
2017-Sep-13 07:30N 40°45' W 074°05'0 0.0
2017-Sep-13 06:35N 40°45' W 074°05'0 0.0
2017-Sep-13 06:30N 40°45' W 074°05'0 0.0
2017-Sep-13 03:56N 40°45' W 074°05'0 0.0
2017-Sep-13 03:03N 40°45' W 074°05'0 1.7
2017-Sep-13 02:58N 40°45' W 074°05'1 2.0
2017-Sep-13 02:30N 40°44' W 074°06'3 5.7
2017-Sep-13 02:00N 40°42' W 074°07'0 0.7
2017-Sep-13 01:30N 40°41' W 074°08'4 7.2
2017-Sep-13 00:59N 40°44' W 074°05'1 0.4
2017-Sep-12 23:26N 40°45' W 074°04'0 0.0
2017-Sep-12 23:00N 40°45' W 074°04'0 0.0
2017-Sep-12 19:22N 40°45' W 074°04'0 0.0
2017-Sep-12 18:25N 40°45' W 074°04'0 0.0
2017-Sep-12 05:49N 40°45' W 074°04'0 0.0
2017-Sep-12 03:23N 40°45' W 074°04'0 0.0
2017-Sep-12 02:57N 40°45' W 074°04'0 0.0
2017-Sep-12 02:29N 40°45' W 074°04'0 0.0
2017-Sep-12 02:00N 40°45' W 074°04'0 0.0
2017-Sep-12 01:30N 40°45' W 074°04'0 0.0
2017-Sep-12 00:59N 40°45' W 074°04'0 0.0
2017-Sep-12 00:30N 40°45' W 074°04'0 0.0
2017-Sep-12 00:00N 40°45' W 074°04'  

Dump ship's entire track history